Time;durP1;ratioP1;P1;durP2;ratioP2;P2;SDS_P1;SDS_P2;PMS_P1;PMS_P2;Temp;Humidity;BMP_temperature;BMP_pressure;BME280_temperature;BME280_humidity;BME280_pressure;Samples;Min_cycle;Max_cycle;Signal;HPM_P1;HPM_P2
2023/05/26 00:01:50;;;;;;;10.03;8.90;;;;;;;13.67;100.00;97076.56;5105787;28;20586;-61
2023/05/26 00:04:18;;;;;;;9.27;8.27;;;;;;;13.61;100.00;97082.47;5108969;28;20234;-62
2023/05/26 00:06:46;;;;;;;10.17;9.03;;;;;;;13.60;100.00;97081.66;5101472;28;20205;-60
2023/05/26 00:09:14;;;;;;;14.20;9.20;;;;;;;13.53;100.00;97085.06;5099747;28;20239;-61
2023/05/26 00:11:42;;;;;;;9.73;8.73;;;;;;;13.58;100.00;97083.63;5099423;28;20683;-61
2023/05/26 00:14:10;;;;;;;9.87;8.90;;;;;;;13.50;100.00;97086.19;5099024;28;20217;-62
2023/05/26 00:16:37;;;;;;;10.07;9.00;;;;;;;13.45;100.00;97084.00;5099672;28;20260;-61
2023/05/26 00:19:07;;;;;;;11.40;10.27;;;;;;;13.42;100.00;97086.13;5098371;28;20825;-60
2023/05/26 00:21:33;;;;;;;9.70;8.80;;;;;;;13.37;100.00;97085.72;5100185;28;20230;-62
2023/05/26 00:24:00;;;;;;;12.30;9.07;;;;;;;13.34;100.00;97083.38;5098489;28;20237;-62
2023/05/26 00:26:26;;;;;;;10.03;8.93;;;;;;;13.32;100.00;97082.69;5099247;28;20197;-62
2023/05/26 00:28:53;;;;;;;10.07;8.93;;;;;;;13.29;100.00;97075.00;5098999;28;20359;-62
2023/05/26 00:31:19;;;;;;;9.80;8.73;;;;;;;13.33;100.00;97074.56;5098593;28;20258;-61
2023/05/26 00:33:47;;;;;;;13.30;9.70;;;;;;;13.37;100.00;97064.47;5099952;28;20312;-61
2023/05/26 00:36:13;;;;;;;10.03;9.13;;;;;;;13.31;100.00;97070.38;5099604;28;20201;-63
2023/05/26 00:38:40;;;;;;;10.33;9.33;;;;;;;13.37;100.00;97075.09;5100156;28;20206;-61
2023/05/26 00:41:07;;;;;;;10.43;9.40;;;;;;;13.30;100.00;97068.72;5099014;28;20254;-60
2023/05/26 00:43:34;;;;;;;10.83;9.73;;;;;;;13.27;100.00;97064.53;5103387;28;20212;-62
2023/05/26 00:46:00;;;;;;;10.87;9.63;;;;;;;13.24;100.00;97074.63;5106113;28;20650;-61
2023/05/26 00:48:27;;;;;;;11.50;9.43;;;;;;;13.18;100.00;97064.59;5104128;28;20221;-61
2023/05/26 00:50:55;;;;;;;13.97;9.77;;;;;;;13.16;100.00;97061.25;5104000;28;20600;-60
2023/05/26 00:53:21;;;;;;;11.20;9.77;;;;;;;13.11;100.00;97060.88;5103444;28;20198;-61
2023/05/26 00:55:51;;;;;;;9.87;9.03;;;;;;;13.14;100.00;97068.53;5102648;28;20266;-62
2023/05/26 00:58:18;;;;;;;11.20;8.97;;;;;;;13.09;100.00;97060.13;5101335;28;20719;-62
2023/05/26 01:00:45;;;;;;;10.43;9.37;;;;;;;13.03;100.00;97056.25;5102290;28;20346;-61
2023/05/26 01:03:13;;;;;;;10.20;8.97;;;;;;;13.02;100.00;97064.38;5102805;28;20205;-62
2023/05/26 01:05:39;;;;;;;12.23;9.03;;;;;;;13.00;100.00;97067.19;5104632;28;20202;-61
2023/05/26 01:08:07;;;;;;;9.17;8.27;;;;;;;13.01;100.00;97062.69;5101503;28;20296;-62
2023/05/26 01:10:34;;;;;;;10.10;8.90;;;;;;;13.04;100.00;97057.91;5102449;28;20225;-61
2023/05/26 01:13:03;;;;;;;10.43;9.43;;;;;;;13.06;100.00;97060.44;5101176;28;20299;-62
2023/05/26 01:15:32;;;;;;;10.83;9.70;;;;;;;13.08;100.00;97064.59;5102121;28;20213;-62
2023/05/26 01:18:04;;;;;;;10.73;9.10;;;;;;;13.08;100.00;97061.09;5103205;28;20217;-62
2023/05/26 01:20:38;;;;;;;10.00;9.00;;;;;;;13.08;100.00;97066.41;5102733;28;20224;-61
2023/05/26 01:23:27;;;;;;;9.90;8.90;;;;;;;13.08;100.00;97063.75;5092600;28;20298;-60
2023/05/26 01:26:08;;;;;;;10.83;8.97;;;;;;;13.08;100.00;97063.75;5103861;28;20197;-62
2023/05/26 01:28:37;;;;;;;9.93;9.00;;;;;;;13.05;100.00;97058.75;5102204;28;20205;-61
2023/05/26 01:31:03;;;;;;;10.63;9.53;;;;;;;13.07;100.00;97067.41;5101974;28;20653;-62
2023/05/26 01:33:29;;;;;;;10.00;9.00;;;;;;;12.98;100.00;97058.50;5103377;28;20202;-62
2023/05/26 01:35:56;;;;;;;10.50;9.50;;;;;;;13.00;100.00;97061.03;5104093;28;20197;-62
2023/05/26 01:38:23;;;;;;;12.67;9.27;;;;;;;12.97;100.00;97056.84;5103390;28;20197;-62
2023/05/26 01:40:55;;;;;;;10.67;9.60;;;;;;;12.99;100.00;97054.88;5102288;28;20218;-62
2023/05/26 01:43:24;;;;;;;13.70;9.37;;;;;;;12.93;100.00;97061.59;5103395;28;20200;-61
2023/05/26 01:45:58;;;;;;;10.70;9.43;;;;;;;12.95;100.00;97059.66;5101343;28;20201;-62
2023/05/26 01:48:25;;;;;;;10.40;9.43;;;;;;;12.94;100.00;97065.09;5102117;28;20220;-62
2023/05/26 01:50:53;;;;;;;11.43;9.73;;;;;;;12.94;100.00;97065.94;5102239;28;20209;-62
2023/05/26 01:53:22;;;;;;;15.00;9.80;;;;;;;12.97;100.00;97072.75;5100930;28;20682;-62
2023/05/26 01:55:51;;;;;;;10.40;9.33;;;;;;;12.97;100.00;97070.94;5090169;28;20201;-62
2023/05/26 01:58:18;;;;;;;10.30;9.30;;;;;;;12.93;100.00;97066.91;5101014;28;20293;-61
2023/05/26 02:00:47;;;;;;;10.07;9.13;;;;;;;12.89;100.00;97076.16;5101151;28;20618;-62
2023/05/26 02:03:16;;;;;;;10.27;9.03;;;;;;;12.92;100.00;97075.88;5100710;28;20520;-62
2023/05/26 02:05:42;;;;;;;9.87;8.97;;;;;;;12.86;100.00;97081.75;5103058;28;20228;-61
2023/05/26 02:08:10;;;;;;;11.00;8.57;;;;;;;12.81;100.00;97089.34;5100827;28;20653;-63
2023/05/26 02:10:36;;;;;;;10.43;9.43;;;;;;;12.80;100.00;97090.31;5100752;28;21323;-61
2023/05/26 02:13:03;;;;;;;10.80;9.70;;;;;;;12.76;100.00;97083.63;5107591;28;20213;-62
2023/05/26 02:15:30;;;;;;;12.67;9.30;;;;;;;12.75;100.00;97087.25;5101983;28;20287;-62
2023/05/26 02:17:57;;;;;;;10.27;9.30;;;;;;;12.76;100.00;97091.56;5099816;28;20216;-62
2023/05/26 02:20:25;;;;;;;11.77;9.90;;;;;;;12.79;100.00;97085.13;5099715;28;20553;-62
2023/05/26 02:22:52;;;;;;;11.40;9.10;;;;;;;12.73;100.00;97080.41;5101259;28;20205;-62
2023/05/26 02:25:19;;;;;;;14.03;9.93;;;;;;;12.74;100.00;97080.28;5100813;28;20201;-61
2023/05/26 02:27:46;;;;;;;11.20;9.20;;;;;;;12.72;100.00;97073.44;5101758;28;20202;-61
2023/05/26 02:30:12;;;;;;;11.53;9.87;;;;;;;12.70;100.00;97076.25;5099825;28;20700;-61
2023/05/26 02:32:39;;;;;;;12.07;9.67;;;;;;;12.73;100.00;97075.09;5101572;28;20205;-61
2023/05/26 02:35:07;;;;;;;10.57;9.47;;;;;;;12.69;100.00;97071.91;5100745;28;20208;-61
2023/05/26 02:37:35;;;;;;;16.13;10.07;;;;;;;12.67;100.00;97071.22;5102005;28;20233;-62
2023/05/26 02:40:05;;;;;;;11.10;10.07;;;;;;;12.67;100.00;97076.53;5100488;28;20205;-62
2023/05/26 02:42:31;;;;;;;11.50;9.80;;;;;;;12.63;100.00;97069.84;5101781;28;20205;-61
2023/05/26 02:44:58;;;;;;;10.60;9.63;;;;;;;12.69;100.00;97085.19;5100030;28;20206;-62
2023/05/26 02:47:24;;;;;;;11.87;10.13;;;;;;;12.67;100.00;97081.84;5100892;28;20212;-61
2023/05/26 02:49:50;;;;;;;12.30;9.33;;;;;;;12.73;100.00;97080.41;5099595;28;21342;-62
2023/05/26 02:52:17;;;;;;;11.00;9.30;;;;;;;12.67;100.00;97081.84;5101719;28;20217;-62
2023/05/26 02:54:45;;;;;;;13.53;9.63;;;;;;;12.70;100.00;97084.22;5099819;28;20213;-62
2023/05/26 02:57:11;;;;;;;10.50;9.53;;;;;;;12.69;100.00;97082.53;5101167;28;20206;-61
2023/05/26 02:59:38;;;;;;;10.50;9.50;;;;;;;12.68;100.00;97083.50;5100310;28;20624;-61
2023/05/26 03:02:05;;;;;;;10.63;9.50;;;;;;;12.69;100.00;97087.00;5101164;28;20288;-62
2023/05/26 03:04:31;;;;;;;12.67;10.80;;;;;;;12.64;100.00;97090.09;5100198;28;20201;-62
2023/05/26 03:06:57;;;;;;;10.40;9.03;;;;;;;12.64;100.00;97092.75;5101582;28;20255;-60
2023/05/26 03:09:24;;;;;;;10.60;9.70;;;;;;;12.54;100.00;97094.56;5099182;28;20666;-62
2023/05/26 03:11:53;;;;;;;12.33;9.50;;;;;;;12.55;100.00;97092.75;5100229;28;20285;-61
2023/05/26 03:14:20;;;;;;;10.93;10.03;;;;;;;12.54;100.00;97081.31;5099626;28;20578;-62
2023/05/26 03:16:46;;;;;;;10.90;9.77;;;;;;;12.55;100.00;97085.66;5100588;28;20204;-62
2023/05/26 03:19:13;;;;;;;11.10;10.07;;;;;;;12.54;100.00;97083.97;5099895;28;20863;-62
2023/05/26 03:21:40;;;;;;;9.77;8.97;;;;;;;12.56;100.00;97086.47;5100351;28;20201;-61
2023/05/26 03:24:08;;;;;;;11.60;9.43;;;;;;;12.52;100.00;97085.09;5099835;28;20272;-61
2023/05/26 03:26:34;;;;;;;10.87;8.90;;;;;;;12.51;100.00;97086.91;5100630;28;20197;-62
2023/05/26 03:29:02;;;;;;;10.33;9.27;;;;;;;12.47;100.00;97080.22;5099420;28;20697;-61
2023/05/26 03:31:29;;;;;;;11.90;9.40;;;;;;;12.43;100.00;97084.16;5098936;28;21293;-62
2023/05/26 03:33:55;;;;;;;10.53;9.03;;;;;;;12.52;100.00;97083.28;5100027;28;20533;-61
2023/05/26 03:36:21;;;;;;;10.10;9.07;;;;;;;12.48;100.00;97077.44;5102458;28;20218;-61
2023/05/26 03:38:48;;;;;;;10.23;8.73;;;;;;;12.46;100.00;97083.88;5103023;28;20205;-61
2023/05/26 03:41:14;;;;;;;10.63;9.30;;;;;;;12.42;100.00;97090.44;5101389;28;20629;-62
2023/05/26 03:43:41;;;;;;;9.33;8.43;;;;;;;12.38;100.00;97097.00;5099965;28;20533;-62
2023/05/26 03:46:09;;;;;;;11.13;9.87;;;;;;;12.41;100.00;97102.03;5099427;28;20212;-62
2023/05/26 03:48:35;;;;;;;11.50;9.27;;;;;;;12.43;100.00;97097.44;5099768;28;20196;-62
2023/05/26 03:51:02;;;;;;;10.30;9.40;;;;;;;12.41;100.00;97097.56;5099682;28;20294;-62
2023/05/26 03:53:31;;;;;;;10.90;9.07;;;;;;;12.41;100.00;97094.06;5101189;28;20205;-61
2023/05/26 03:55:57;;;;;;;11.67;9.70;;;;;;;12.42;100.00;97098.41;5101585;28;20641;-61
2023/05/26 03:58:24;;;;;;;10.13;8.93;;;;;;;12.45;100.00;97100.75;5101297;28;20229;-63
2023/05/26 04:00:51;;;;;;;9.83;8.93;;;;;;;12.48;100.00;97097.81;5099540;28;20205;-61
2023/05/26 04:03:18;;;;;;;10.60;9.53;;;;;;;12.44;100.00;97102.56;5100144;28;20530;-62
2023/05/26 04:05:45;;;;;;;10.40;9.57;;;;;;;12.52;100.00;97109.81;5099293;28;20644;-62
2023/05/26 04:08:11;;;;;;;11.40;9.13;;;;;;;12.48;100.00;97106.59;5099938;28;20355;-61
2023/05/26 04:10:38;;;;;;;13.10;9.83;;;;;;;12.49;100.00;97107.44;5099382;28;20221;-61
2023/05/26 04:13:04;;;;;;;11.37;9.80;;;;;;;12.55;100.00;97098.91;5099949;28;20205;-62
2023/05/26 04:15:31;;;;;;;12.93;9.60;;;;;;;12.60;100.00;97103.78;5099501;28;20202;-61
2023/05/26 04:17:57;;;;;;;13.60;9.50;;;;;;;12.62;100.00;97112.44;5099297;28;20259;-61
2023/05/26 04:20:25;;;;;;;11.70;9.07;;;;;;;12.65;100.00;97114.78;5099182;28;20212;-61
2023/05/26 04:22:51;;;;;;;9.70;8.80;;;;;;;12.71;100.00;97104.47;5100068;28;20224;-62
2023/05/26 04:25:18;;;;;;;13.77;8.87;;;;;;;12.72;100.00;97110.59;5100325;28;20224;-62
2023/05/26 04:27:46;;;;;;;10.73;9.50;;;;;;;12.73;100.00;97102.47;5099457;28;20606;-61
2023/05/26 04:30:13;;;;;;;9.57;8.60;;;;;;;12.76;100.00;97107.50;5098963;28;20279;-61
2023/05/26 04:32:40;;;;;;;12.20;9.37;;;;;;;12.80;100.00;97111.53;5099540;28;20205;-62
2023/05/26 04:35:07;;;;;;;12.10;9.30;;;;;;;12.79;100.00;97107.22;5098788;28;20536;-60
2023/05/26 04:37:35;;;;;;;12.10;9.40;;;;;;;12.82;100.00;97106.91;5099704;28;20613;-61
2023/05/26 04:40:05;;;;;;;10.13;9.03;;;;;;;12.84;100.00;97107.63;5098727;28;20637;-61
2023/05/26 04:42:33;;;;;;;10.70;9.17;;;;;;;12.88;100.00;97116.97;5100814;28;20261;-61
2023/05/26 04:45:01;;;;;;;10.10;9.10;;;;;;;12.96;100.00;97116.25;5098401;28;20213;-60
2023/05/26 04:47:32;;;;;;;9.87;8.97;;;;;;;13.03;100.00;97120.00;5100480;28;20216;-60
2023/05/26 04:49:59;;;;;;;11.83;8.80;;;;;;;13.10;100.00;97126.41;5099404;28;20205;-61
2023/05/26 04:52:25;;;;;;;12.23;9.60;;;;;;;13.17;100.00;97129.31;5097016;28;20670;-61
2023/05/26 04:54:53;;;;;;;11.03;9.50;;;;;;;13.28;100.00;97129.13;5097878;28;20198;-61
2023/05/26 04:57:19;;;;;;;11.63;8.33;;;;;;;13.41;100.00;97132.25;5101725;28;20201;-61
2023/05/26 04:59:46;;;;;;;9.97;8.90;;;;;;;13.50;100.00;97134.00;5097139;28;20540;-62
2023/05/26 05:02:13;;;;;;;11.27;9.47;;;;;;;13.62;100.00;97130.16;5098421;28;20202;-61
2023/05/26 05:04:42;;;;;;;12.27;8.83;;;;;;;13.80;100.00;97130.19;5098102;28;20209;-63
2023/05/26 05:07:08;;;;;;;10.57;9.03;;;;;;;13.99;100.00;97126.56;5099817;28;20214;-60
2023/05/26 05:09:35;;;;;;;12.97;9.43;;;;;;;14.22;100.00;97131.25;5098327;28;20546;-63
2023/05/26 05:12:02;;;;;;;11.10;9.20;;;;;;;14.36;100.00;97132.53;5097314;28;20904;-61
2023/05/26 05:14:29;;;;;;;10.20;9.20;;;;;;;14.50;100.00;97129.31;5097767;28;20536;-62
2023/05/26 05:16:55;;;;;;;12.93;10.53;;;;;;;14.62;100.00;97136.06;5097572;28;20206;-61
2023/05/26 05:19:22;;;;;;;12.80;9.07;;;;;;;14.75;100.00;97133.81;5097230;28;20213;-61
2023/05/26 05:21:48;;;;;;;12.33;8.93;;;;;;;14.85;100.00;97142.53;5097203;28;20220;-61
2023/05/26 05:24:15;;;;;;;10.17;8.70;;;;;;;14.97;100.00;97142.28;5095766;28;20567;-61
2023/05/26 05:26:44;;;;;;;11.37;9.70;;;;;;;14.95;100.00;97150.41;5097280;28;20221;-61
2023/05/26 05:29:13;;;;;;;10.93;8.83;;;;;;;15.04;100.00;97144.16;5099726;28;20571;-61
2023/05/26 05:31:42;;;;;;;12.52;8.60;;;;;;;15.07;100.00;97149.16;5100583;28;20296;-61
2023/05/26 05:34:08;;;;;;;10.30;9.13;;;;;;;15.24;100.00;97144.72;5102466;28;20232;-61
2023/05/26 05:36:34;;;;;;;11.43;9.25;;;;;;;15.40;100.00;97145.66;5103339;28;20205;-60
2023/05/26 05:39:01;;;;;;;9.60;8.57;;;;;;;15.54;100.00;97143.41;5102303;28;20198;-61
2023/05/26 05:41:28;;;;;;;10.23;8.68;;;;;;;15.69;100.00;97149.78;5103015;28;20221;-61
2023/05/26 05:43:56;;;;;;;10.85;8.75;;;;;;;15.79;100.00;97150.47;5101796;28;20606;-61
2023/05/26 05:46:27;;;;;;;9.57;8.57;;;;;;;15.84;100.00;97148.97;5102231;28;20288;-61
2023/05/26 05:48:53;;;;;;;9.82;8.20;;;;;;;15.86;100.00;97156.81;5101857;28;20212;-62
2023/05/26 05:51:20;;;;;;;9.43;8.40;;;;;;;15.81;100.00;97159.97;5102103;28;20221;-62
2023/05/26 05:53:47;;;;;;;9.05;8.07;;;;;;;15.81;100.00;97159.97;5101170;28;20213;-61
2023/05/26 05:56:14;;;;;;;11.55;8.57;;;;;;;15.82;100.00;97160.81;5101497;28;20216;-62
2023/05/26 05:58:40;;;;;;;12.98;7.97;;;;;;;15.84;100.00;97161.47;5101616;28;20209;-62
2023/05/26 06:01:07;;;;;;;10.68;8.60;;;;;;;15.84;100.00;97167.66;5101099;28;20205;-60
2023/05/26 06:03:35;;;;;;;10.13;8.05;;;;;;;15.88;100.00;97171.66;5103211;28;20208;-61
2023/05/26 06:06:02;;;;;;;9.07;7.63;;;;;;;15.96;100.00;97170.00;5100901;28;20206;-61
2023/05/26 06:08:28;;;;;;;9.10;8.15;;;;;;;16.04;100.00;97170.88;5101921;28;20201;-62
2023/05/26 06:10:55;;;;;;;8.57;7.78;;;;;;;16.11;100.00;97165.72;5101335;28;20226;-61
2023/05/26 06:13:21;;;;;;;9.95;8.00;;;;;;;16.15;100.00;97169.72;5102684;28;20213;-61
2023/05/26 06:15:48;;;;;;;9.63;7.85;;;;;;;16.26;100.00;97169.41;5102492;28;20205;-61
2023/05/26 06:18:14;;;;;;;10.23;8.43;;;;;;;16.34;100.00;97169.38;5102237;28;20220;-61
2023/05/26 06:20:42;;;;;;;11.60;8.52;;;;;;;16.47;100.00;97172.41;5101601;28;20205;-60
2023/05/26 06:23:09;;;;;;;9.57;8.10;;;;;;;16.50;100.00;97177.44;5102314;28;20217;-62
2023/05/26 06:25:36;;;;;;;10.18;7.70;;;;;;;16.54;100.00;97178.75;5101932;28;20197;-60
2023/05/26 06:28:03;;;;;;;11.40;8.25;;;;;;;16.63;100.00;97175.09;5102081;28;20658;-59
2023/05/26 06:30:29;;;;;;;11.48;8.05;;;;;;;16.76;100.00;97178.09;5100286;28;20216;-59
2023/05/26 06:32:56;;;;;;;9.05;7.82;;;;;;;17.03;100.00;97176.06;5100262;28;20217;-59
2023/05/26 06:35:24;;;;;;;9.10;7.88;;;;;;;17.19;100.00;97179.53;5101784;28;20233;-58
2023/05/26 06:37:53;;;;;;;10.07;8.15;;;;;;;17.27;95.68;97181.34;5102171;28;20209;-60
2023/05/26 06:40:19;;;;;;;11.88;8.52;;;;;;;17.35;93.27;97179.50;5100349;28;20205;-58
2023/05/26 06:42:46;;;;;;;9.20;8.23;;;;;;;17.41;92.57;97180.63;5102103;28;20250;-59
2023/05/26 06:45:12;;;;;;;8.60;7.70;;;;;;;17.54;94.23;97188.94;5100384;28;20224;-58
2023/05/26 06:47:40;;;;;;;13.45;8.07;;;;;;;17.53;91.61;97187.28;5101448;28;20587;-61
2023/05/26 06:50:08;;;;;;;10.07;7.90;;;;;;;17.70;94.21;97185.41;5101563;28;20789;-61
2023/05/26 06:52:34;;;;;;;12.27;8.27;;;;;;;17.78;91.12;97186.19;5101690;28;20252;-58
2023/05/26 06:55:03;;;;;;;10.90;7.68;;;;;;;17.95;88.62;97188.78;5101116;28;20206;-59
2023/05/26 06:57:30;;;;;;;9.40;8.40;;;;;;;17.99;90.34;97187.44;5100378;28;20288;-60
2023/05/26 06:59:56;;;;;;;8.43;7.65;;;;;;;18.16;89.96;97183.66;5097671;28;20225;-61
2023/05/26 07:02:23;;;;;;;8.90;7.35;;;;;;;18.51;87.24;97191.13;5099351;28;20214;-61
2023/05/26 07:04:50;;;;;;;9.95;7.47;;;;;;;18.95;82.47;97193.13;5102769;28;20232;-60
2023/05/26 07:07:16;;;;;;;10.65;8.40;;;;;;;19.26;82.43;97191.13;5104262;28;20581;-60
2023/05/26 07:09:43;;;;;;;10.48;8.52;;;;;;;19.60;79.41;97195.97;5101955;28;20213;-60
2023/05/26 07:12:13;;;;;;;8.93;7.57;;;;;;;19.86;80.51;97189.09;5102335;28;20205;-61
2023/05/26 07:14:40;;;;;;;8.27;7.25;;;;;;;20.24;76.75;97195.13;5101815;28;20207;-60
2023/05/26 07:17:07;;;;;;;8.15;7.35;;;;;;;20.52;78.32;97186.31;5100402;28;20972;-60
2023/05/26 07:19:34;;;;;;;9.63;7.88;;;;;;;20.69;73.35;97187.75;5101295;28;20196;-61
2023/05/26 07:22:00;;;;;;;9.32;7.82;;;;;;;20.93;71.92;97189.19;5102653;28;20274;-60
2023/05/26 07:24:27;;;;;;;7.75;6.95;;;;;;;21.17;73.04;97191.47;5100751;28;20232;-60
2023/05/26 07:26:53;;;;;;;9.85;8.05;;;;;;;21.52;70.35;97190.47;5100476;28;20209;-59
2023/05/26 07:29:21;;;;;;;8.90;7.97;;;;;;;21.66;70.35;97186.81;5102206;28;20225;-60
2023/05/26 07:31:50;;;;;;;8.27;7.43;;;;;;;21.85;67.59;97185.28;5102650;28;20221;-59
2023/05/26 07:34:17;;;;;;;8.50;7.57;;;;;;;21.92;68.75;97182.63;5101660;28;20201;-60
2023/05/26 07:36:44;;;;;;;9.65;7.72;;;;;;;21.93;69.64;97181.63;5101570;28;20206;-59
2023/05/26 07:39:10;;;;;;;10.13;7.80;;;;;;;22.32;67.85;97181.72;5104244;28;20297;-60
2023/05/26 07:41:37;;;;;;;9.73;7.75;;;;;;;22.43;66.57;97175.72;5106273;28;20212;-60
2023/05/26 07:44:03;;;;;;;8.55;7.53;;;;;;;22.57;66.05;97177.41;5106786;28;20232;-60
2023/05/26 07:46:31;;;;;;;8.70;7.50;;;;;;;22.79;69.70;97178.94;5104318;28;20213;-61
2023/05/26 07:48:58;;;;;;;8.85;7.90;;;;;;;22.74;64.72;97186.81;5107232;28;20197;-61
2023/05/26 07:51:24;;;;;;;8.82;7.45;;;;;;;22.98;66.07;97184.53;5105940;28;20282;-61
2023/05/26 07:53:50;;;;;;;8.13;7.22;;;;;;;23.30;67.29;97186.41;5102768;28;20193;-61
2023/05/26 07:56:17;;;;;;;10.52;8.50;;;;;;;23.18;62.42;97182.66;5104056;28;20213;-61
2023/05/26 07:58:43;;;;;;;8.77;7.95;;;;;;;23.06;66.45;97173.56;5101546;28;20279;-63
2023/05/26 08:01:10;;;;;;;10.55;8.18;;;;;;;23.10;64.69;97172.06;5103595;28;20186;-62
2023/05/26 08:03:38;;;;;;;11.00;8.13;;;;;;;23.43;62.46;97178.31;5104333;28;20289;-60
2023/05/26 08:06:04;;;;;;;13.52;8.93;;;;;;;23.34;63.90;97174.16;5099311;28;20194;-60
2023/05/26 08:08:31;;;;;;;11.25;8.75;;;;;;;23.17;63.32;97178.28;5100431;28;20593;-60
2023/05/26 08:10:57;;;;;;;10.98;7.75;;;;;;;23.21;63.67;97182.25;5099459;28;20776;-60
2023/05/26 08:13:24;;;;;;;13.05;8.90;;;;;;;23.27;66.30;97176.03;5100332;28;20630;-60
2023/05/26 08:15:50;;;;;;;12.77;9.07;;;;;;;23.43;64.60;97182.88;5098297;28;21477;-60
2023/05/26 08:18:17;;;;;;;11.35;9.23;;;;;;;23.57;61.75;97179.94;5099750;28;20215;-59
2023/05/26 08:20:45;;;;;;;10.68;9.23;;;;;;;23.30;63.34;97172.91;5099502;28;20205;-61
2023/05/26 08:23:11;;;;;;;10.02;9.00;;;;;;;23.22;64.06;97181.22;5099235;28;20209;-60
2023/05/26 08:25:37;;;;;;;9.80;8.77;;;;;;;23.69;62.18;97182.81;5098109;28;20198;-60
2023/05/26 08:28:04;;;;;;;9.25;8.27;;;;;;;23.59;63.94;97183.28;5099975;28;20205;-59
2023/05/26 08:30:31;;;;;;;9.95;8.52;;;;;;;23.54;64.92;97179.53;5097898;28;20317;-59
2023/05/26 08:32:57;;;;;;;12.80;8.70;;;;;;;23.65;67.44;97181.59;5099814;28;20213;-60
2023/05/26 08:35:29;;;;;;;12.70;8.55;;;;;;;23.76;61.44;97173.66;5097378;28;20514;-61
2023/05/26 08:37:57;;;;;;;10.10;9.13;;;;;;;23.56;65.21;97180.97;5089744;28;20228;-59
2023/05/26 08:40:24;;;;;;;10.05;8.82;;;;;;;23.69;66.29;97175.56;5099095;28;20197;-60
2023/05/26 08:42:52;;;;;;;11.32;9.27;;;;;;;23.74;66.74;97173.03;5100053;28;20197;-61
2023/05/26 08:45:20;;;;;;;11.73;9.60;;;;;;;23.87;64.07;97166.75;5097004;28;20221;-60
2023/05/26 08:47:48;;;;;;;12.40;9.65;;;;;;;23.92;63.25;97166.94;5098362;28;20197;-60
2023/05/26 08:50:15;;;;;;;10.15;9.25;;;;;;;24.16;60.55;97174.34;5098862;28;20193;-60
2023/05/26 08:52:42;;;;;;;9.20;8.30;;;;;;;23.98;67.21;97173.38;5099461;28;20206;-59
2023/05/26 08:55:10;;;;;;;10.27;8.73;;;;;;;24.37;65.13;97161.56;5099481;28;20192;-60
2023/05/26 08:57:38;;;;;;;10.18;9.25;;;;;;;24.01;63.32;97176.47;5098144;28;20707;-60
2023/05/26 09:00:08;;;;;;;10.52;9.18;;;;;;;24.28;61.89;97169.91;5096591;28;20650;-60
2023/05/26 09:02:34;;;;;;;9.63;8.35;;;;;;;24.44;63.97;97170.47;5098742;28;20278;-61
2023/05/26 09:05:01;;;;;;;9.75;8.85;;;;;;;24.65;63.47;97164.72;5102492;28;20209;-60
2023/05/26 09:07:28;;;;;;;9.80;8.18;;;;;;;24.62;63.27;97171.38;5102894;28;20197;-61
2023/05/26 09:09:54;;;;;;;10.13;8.45;;;;;;;24.68;67.53;97170.50;5102906;28;20205;-60
2023/05/26 09:12:30;;;;;;;9.73;8.80;;;;;;;24.72;64.10;97171.72;5102642;28;20214;-60
2023/05/26 09:14:56;;;;;;;11.88;10.15;;;;;;;24.55;59.93;97165.16;5101596;28;20435;-60
2023/05/26 09:17:23;;;;;;;11.25;9.77;;;;;;;24.49;64.23;97163.34;5103217;28;20583;-61
2023/05/26 09:19:50;;;;;;;11.27;9.82;;;;;;;24.51;62.26;97168.56;5104964;28;20330;-61
2023/05/26 09:22:16;;;;;;;11.27;10.10;;;;;;;24.73;62.16;97172.53;5102000;28;20204;-60
2023/05/26 09:24:47;;;;;;;10.52;9.30;;;;;;;24.90;62.59;97167.47;5102665;28;20237;-60
2023/05/26 09:27:18;;;;;;;11.10;9.40;;;;;;;24.79;59.47;97168.97;5103802;28;20210;-59
2023/05/26 09:29:51;;;;;;;11.27;10.18;;;;;;;24.66;61.23;97164.47;5103275;28;21424;-60
2023/05/26 09:32:19;;;;;;;10.20;9.10;;;;;;;24.73;64.85;97173.38;5103331;28;20279;-61
2023/05/26 09:34:46;;;;;;;10.73;9.60;;;;;;;24.86;62.19;97174.38;5102931;28;20219;-60
2023/05/26 09:37:12;;;;;;;10.15;9.05;;;;;;;25.04;63.21;97163.59;5102728;28;20217;-60
2023/05/26 09:39:39;;;;;;;12.55;9.13;;;;;;;25.22;65.09;97164.47;5101223;28;20190;-59
2023/05/26 09:42:07;;;;;;;10.20;9.20;;;;;;;25.21;60.88;97170.94;5102134;28;20232;-61
2023/05/26 09:44:34;;;;;;;10.95;9.07;;;;;;;24.85;60.49;97159.16;5101501;28;20212;-61
2023/05/26 09:47:04;;;;;;;12.45;9.07;;;;;;;25.29;59.59;97161.72;5098897;28;20653;-60
2023/05/26 09:49:32;;;;;;;10.23;9.02;;;;;;;25.40;62.99;97162.88;5102344;28;20213;-61
2023/05/26 09:51:59;;;;;;;9.95;8.90;;;;;;;25.28;59.84;97162.75;5102987;28;20317;-61
2023/05/26 09:54:26;;;;;;;11.68;9.40;;;;;;;25.29;59.59;97159.00;5102428;28;20205;-61
2023/05/26 09:56:54;;;;;;;10.18;9.18;;;;;;;25.51;61.68;97154.00;5108536;28;20213;-61
2023/05/26 09:59:22;;;;;;;8.98;8.18;;;;;;;25.57;60.68;97150.41;5109548;28;20202;-60
2023/05/26 10:01:49;;;;;;;9.23;8.43;;;;;;;25.73;60.20;97157.94;5109071;28;20260;-60
2023/05/26 10:04:17;;;;;;;9.40;8.50;;;;;;;25.73;60.13;97158.75;5104378;28;20216;-60
2023/05/26 10:06:44;;;;;;;9.55;8.73;;;;;;;25.69;60.16;97154.84;5102643;28;20198;-60
2023/05/26 10:09:11;;;;;;;10.45;9.27;;;;;;;25.74;60.60;97141.47;5102269;28;20204;-61
2023/05/26 10:11:42;;;;;;;9.25;8.27;;;;;;;25.72;59.46;97143.56;5103059;28;20694;-60
2023/05/26 10:14:09;;;;;;;9.10;8.10;;;;;;;25.84;58.03;97138.22;5101345;28;20213;-60
2023/05/26 10:16:36;;;;;;;8.27;7.47;;;;;;;25.73;58.51;97150.63;5101282;28;20266;-61
2023/05/26 10:19:03;;;;;;;10.50;7.63;;;;;;;25.95;60.26;97145.59;5101557;28;20201;-60
2023/05/26 10:21:35;;;;;;;8.88;7.97;;;;;;;25.66;57.11;97136.34;5100812;28;20198;-60
2023/05/26 10:24:07;;;;;;;9.23;7.88;;;;;;;25.99;59.38;97138.66;5101572;28;20241;-61
2023/05/26 10:26:43;;;;;;;8.60;7.10;;;;;;;26.11;56.34;97138.72;5100811;28;20197;-61
2023/05/26 10:29:11;;;;;;;7.45;6.75;;;;;;;26.16;55.63;97133.41;5101748;28;20190;-60
2023/05/26 10:31:40;;;;;;;7.88;7.18;;;;;;;26.14;56.66;97133.66;5100300;28;20857;-59
2023/05/26 10:34:12;;;;;;;8.30;7.28;;;;;;;26.54;57.00;97138.53;5101066;28;20259;-60
2023/05/26 10:36:41;;;;;;;7.68;6.97;;;;;;;26.48;53.42;97128.63;5101685;28;20190;-60
2023/05/26 10:39:10;;;;;;;7.60;6.90;;;;;;;26.65;55.12;97129.59;5101022;28;20198;-61
2023/05/26 10:41:38;;;;;;;7.60;6.80;;;;;;;26.97;59.38;97127.44;5101333;28;20267;-61
2023/05/26 10:44:05;;;;;;;8.60;6.60;;;;;;;27.10;54.29;97121.81;5102119;28;20213;-63
2023/05/26 10:46:45;;;;;;;7.00;6.30;;;;;;;26.58;52.51;97118.03;5100151;28;20201;-62
2023/05/26 10:49:21;;;;;;;6.82;6.22;;;;;;;26.80;53.23;97121.84;5115983;28;20197;-62
2023/05/26 10:52:08;;;;;;;8.43;7.22;;;;;;;26.69;54.13;97120.78;5117092;28;20285;-60
2023/05/26 10:54:34;;;;;;;7.97;6.68;;;;;;;26.76;55.98;97106.25;5112696;28;20189;-60
2023/05/26 10:57:01;;;;;;;6.15;5.65;;;;;;;26.92;53.83;97113.78;5113457;28;20210;-59
2023/05/26 10:59:31;;;;;;;7.80;6.80;;;;;;;26.99;51.51;97109.06;5113195;28;20212;-61
2023/05/26 11:01:58;;;;;;;6.75;6.15;;;;;;;27.43;53.20;97104.88;5112793;28;20198;-59
2023/05/26 11:04:42;;;;;;;6.50;5.90;;;;;;;27.44;53.40;97107.38;5113950;28;20216;-60
2023/05/26 11:07:22;;;;;;;8.10;6.00;;;;;;;27.40;52.16;97102.66;5103465;28;20220;-60
2023/05/26 11:09:56;;;;;;;5.97;5.40;;;;;;;27.41;53.04;97107.88;5103578;28;20193;-58
2023/05/26 11:12:23;;;;;;;7.18;5.95;;;;;;;27.20;51.82;97105.75;5102543;28;20205;-59
2023/05/26 11:14:50;;;;;;;6.88;6.18;;;;;;;27.21;52.33;97101.94;5101697;28;20654;-59
2023/05/26 11:17:19;;;;;;;6.28;5.68;;;;;;;27.35;53.13;97106.06;5101779;28;20202;-61
2023/05/26 11:19:54;;;;;;;7.68;5.60;;;;;;;27.26;50.98;97102.06;5103081;28;20204;-60
2023/05/26 11:22:23;;;;;;;6.55;5.88;;;;;;;27.40;52.14;97095.34;5102063;28;20649;-60
2023/05/26 11:24:51;;;;;;;7.68;6.35;;;;;;;27.51;51.39;97104.56;5101474;28;20233;-60
2023/05/26 11:27:18;;;;;;;7.65;6.20;;;;;;;27.47;52.19;97097.94;5101388;28;20232;-62